createdAt,value
2018-11-27T00:00:38.290Z,42.53
2018-11-27T00:03:58.217Z,40.83
2018-11-27T00:07:03.095Z,36.93
2018-11-27T00:10:11.443Z,37.47
2018-11-27T00:13:16.319Z,35.10
2018-11-27T00:16:21.130Z,36.80
2018-11-27T00:19:26.093Z,35.30
2018-11-27T00:22:30.988Z,40.13
2018-11-27T00:25:36.544Z,36.10
2018-11-27T00:28:41.423Z,34.93
2018-11-27T00:31:46.247Z,37.20
2018-11-27T00:34:51.248Z,35.57
2018-11-27T00:37:56.177Z,38.10
2018-11-27T00:41:01.008Z,39.47
2018-11-27T00:44:06.627Z,37.17
2018-11-27T00:47:11.548Z,39.53
2018-11-27T00:50:22.982Z,35.17
2018-11-27T00:53:27.844Z,40.30
2018-11-27T00:56:32.703Z,37.87
2018-11-27T00:59:38.099Z,37.33
2018-11-27T01:02:42.985Z,37.93
2018-11-27T01:05:47.840Z,37.10
2018-11-27T01:08:53.197Z,42.87
2018-11-27T01:11:58.043Z,41.43
2018-11-27T01:15:02.893Z,39.67
2018-11-27T01:18:08.119Z,33.78
2018-11-27T01:21:13.028Z,36.30
2018-11-27T01:24:17.994Z,31.37
2018-11-27T01:27:22.842Z,37.53
2018-11-27T01:30:27.708Z,36.07
2018-11-27T01:33:32.568Z,35.60
2018-11-27T01:36:38.003Z,38.20
2018-11-27T01:39:42.852Z,37.20
2018-11-27T01:42:48.588Z,34.10
2018-11-27T01:45:53.437Z,33.53
2018-11-27T01:48:58.356Z,34.93
2018-11-27T01:52:03.207Z,33.00
2018-11-27T01:55:09.699Z,35.20
2018-11-27T01:58:14.557Z,32.43
2018-11-27T02:01:19.364Z,34.67
2018-11-27T02:04:24.274Z,31.73
2018-11-27T02:07:29.072Z,29.37
2018-11-27T02:10:33.968Z,29.72
2018-11-27T02:13:38.814Z,28.23
2018-11-27T02:16:43.644Z,26.43
2018-11-27T02:19:48.722Z,25.50
2018-11-27T02:22:53.594Z,26.43
2018-11-27T02:25:58.438Z,24.37
2018-11-27T02:29:03.362Z,26.47
2018-11-27T02:32:08.623Z,23.87
2018-11-27T02:35:17.390Z,25.03
2018-11-27T02:38:22.277Z,26.77
2018-11-27T02:41:27.110Z,29.10
2018-11-27T02:44:31.976Z,30.70
2018-11-27T02:47:36.800Z,25.37
2018-11-27T02:50:41.803Z,26.70
2018-11-27T02:53:46.718Z,32.90
2018-11-27T02:56:51.593Z,29.57
2018-11-27T02:59:56.424Z,29.30
2018-11-27T03:03:01.307Z,27.63
2018-11-27T03:06:07.362Z,30.05
2018-11-27T03:09:12.271Z,29.40
2018-11-27T03:12:17.079Z,34.73
2018-11-27T03:15:21.978Z,25.93
2018-11-27T03:18:26.808Z,32.55
2018-11-27T03:21:31.659Z,29.97
2018-11-27T03:24:36.500Z,28.83
2018-11-27T03:27:41.323Z,29.57
2018-11-27T03:30:46.183Z,30.23
2018-11-27T03:33:51.183Z,32.60
2018-11-27T03:36:56.068Z,33.57
2018-11-27T03:40:00.972Z,33.57
2018-11-27T03:43:05.922Z,30.63
2018-11-27T03:46:10.737Z,35.50
2018-11-27T03:49:15.611Z,39.23
2018-11-27T03:52:20.440Z,33.67
2018-11-27T03:55:25.355Z,37.83
2018-11-27T03:58:30.282Z,28.90
2018-11-27T04:01:35.486Z,44.25
2018-11-27T04:04:40.473Z,34.30
2018-11-27T04:07:45.417Z,35.80
2018-11-27T04:10:50.363Z,40.30
2018-11-27T04:13:55.199Z,34.45
2018-11-27T04:17:00.138Z,38.00
2018-11-27T04:20:05.478Z,42.47
2018-11-27T04:23:10.363Z,39.47
2018-11-27T04:26:15.181Z,40.75
2018-11-27T04:29:20.154Z,40.17
2018-11-27T04:32:25.115Z,35.83
2018-11-27T04:35:30.011Z,42.70
2018-11-27T04:38:34.911Z,36.63
2018-11-27T04:41:39.849Z,36.00
2018-11-27T04:44:44.696Z,41.13
2018-11-27T04:47:49.635Z,40.57
2018-11-27T04:50:54.715Z,37.57
2018-11-27T04:53:59.544Z,38.70
2018-11-27T04:57:04.395Z,36.17
2018-11-27T05:00:29.367Z,37.45
2018-11-27T05:03:34.186Z,37.63
2018-11-27T05:06:39.175Z,37.83
2018-11-27T05:09:44.050Z,39.03
2018-11-27T05:12:48.912Z,36.70
2018-11-27T05:15:53.787Z,36.47
2018-11-27T05:18:58.588Z,39.13
2018-11-27T05:22:03.432Z,40.45
2018-11-27T05:25:10.624Z,36.20
2018-11-27T05:28:15.461Z,35.13
2018-11-27T05:31:20.317Z,38.00
2018-11-27T05:34:25.218Z,42.40
2018-11-27T05:37:30.518Z,40.83
2018-11-27T05:40:35.417Z,41.87
2018-11-27T05:43:40.277Z,40.63
2018-11-27T05:46:45.183Z,37.70
2018-11-27T05:49:50.007Z,33.13
2018-11-27T05:52:55.019Z,39.37
2018-11-27T05:55:59.939Z,38.53
2018-11-27T05:59:04.793Z,38.50
2018-11-27T06:02:09.747Z,36.38
2018-11-27T06:05:18.782Z,38.38
2018-11-27T06:08:23.641Z,41.20
2018-11-27T06:11:28.567Z,39.33
2018-11-27T06:14:33.441Z,38.40
2018-11-27T06:17:38.495Z,38.00
2018-11-27T06:20:43.361Z,44.30
2018-11-27T06:23:48.247Z,43.63
2018-11-27T06:26:53.119Z,39.37
2018-11-27T06:29:58.122Z,42.73
2018-11-27T06:33:03.001Z,42.00
2018-11-27T06:36:08.877Z,40.38
2018-11-27T06:39:13.757Z,35.47
2018-11-27T06:42:18.657Z,42.75
2018-11-27T06:45:24.229Z,45.77
2018-11-27T06:48:29.291Z,40.40
2018-11-27T06:51:34.176Z,44.93
2018-11-27T06:54:39.220Z,40.03
2018-11-27T06:57:44.221Z,43.77
2018-11-27T07:00:49.063Z,44.17
2018-11-27T07:03:53.927Z,44.10
2018-11-27T07:06:58.758Z,39.37
2018-11-27T07:10:03.657Z,47.07
2018-11-27T07:13:13.446Z,45.48
2018-11-27T07:16:18.415Z,47.40
2018-11-27T07:19:23.240Z,40.80
2018-11-27T07:22:28.165Z,45.80
2018-11-27T07:25:33.106Z,50.50
2018-11-27T07:28:38.733Z,44.55
2018-11-27T07:31:43.648Z,40.13
2018-11-27T07:34:48.471Z,44.57
2018-11-27T07:37:53.508Z,39.83
2018-11-27T07:40:58.316Z,46.03
2018-11-27T07:44:03.293Z,42.43
2018-11-27T07:47:08.846Z,56.28
2018-11-27T07:50:14.348Z,47.55
2018-11-27T07:53:19.195Z,40.52
2018-11-27T07:56:24.291Z,40.83
2018-11-27T07:59:29.224Z,45.13
2018-11-27T08:02:34.123Z,46.23
2018-11-27T08:05:42.718Z,40.93
2018-11-27T08:08:47.716Z,47.13
2018-11-27T08:11:52.644Z,40.83
2018-11-27T08:14:57.802Z,42.73
2018-11-27T08:18:02.691Z,42.73
2018-11-27T08:21:08.096Z,41.70
2018-11-27T08:24:13.011Z,44.65
2018-11-27T08:27:17.896Z,46.20
2018-11-27T08:30:24.529Z,39.30
2018-11-27T08:33:29.331Z,48.73
2018-11-27T08:36:34.256Z,44.27
2018-11-27T08:39:39.125Z,44.65
2018-11-27T08:42:44.010Z,42.23
2018-11-27T08:45:48.887Z,45.10
2018-11-27T08:48:53.765Z,40.67
2018-11-27T08:51:58.610Z,40.17
2018-11-27T08:55:03.441Z,39.77
2018-11-27T08:58:19.116Z,55.63
2018-11-27T09:01:24.125Z,41.93
2018-11-27T09:04:29.044Z,43.83
2018-11-27T09:07:33.944Z,44.53
2018-11-27T09:10:39.041Z,44.00
2018-11-27T09:13:43.911Z,44.10
2018-11-27T09:16:48.870Z,43.70
2018-11-27T09:19:53.742Z,41.47
2018-11-27T09:22:58.617Z,46.97
2018-11-27T09:26:03.453Z,43.10
2018-11-27T09:29:08.457Z,46.97
2018-11-27T09:32:13.386Z,43.90
2018-11-27T09:35:18.274Z,45.78
2018-11-27T09:38:23.182Z,43.33
2018-11-27T09:41:28.071Z,49.30
2018-11-27T09:44:32.901Z,43.63
2018-11-27T09:47:38.082Z,41.50
2018-11-27T09:50:42.987Z,44.70
2018-11-27T09:53:47.873Z,40.75
2018-11-27T09:56:52.745Z,44.13
2018-11-27T09:59:57.623Z,48.20
2018-11-27T10:03:16.086Z,48.87
2018-11-27T10:06:20.933Z,43.10
2018-11-27T10:09:25.805Z,44.20
2018-11-27T10:12:30.681Z,43.33
2018-11-27T10:15:35.658Z,41.60
2018-11-27T10:18:40.530Z,42.50
2018-11-27T10:21:45.486Z,43.33
2018-11-27T10:24:50.410Z,44.10
2018-11-27T10:27:55.302Z,44.50
2018-11-27T10:31:00.261Z,49.70
2018-11-27T10:34:05.141Z,47.00
2018-11-27T10:37:10.261Z,45.85
2018-11-27T10:40:15.232Z,46.36
2018-11-27T10:43:20.596Z,56.40
2018-11-27T10:46:25.506Z,49.10
2018-11-27T10:49:30.613Z,49.27
2018-11-27T10:52:35.582Z,52.40
2018-11-27T10:55:40.607Z,48.67
2018-11-27T10:58:45.558Z,52.10
2018-11-27T11:02:14.695Z,50.20
2018-11-27T11:05:24.496Z,50.30
2018-11-27T11:08:29.458Z,51.43
2018-11-27T11:11:34.306Z,48.92
2018-11-27T11:14:39.355Z,44.58
2018-11-27T11:17:44.262Z,53.03
2018-11-27T11:20:49.065Z,53.83
2018-11-27T11:23:54.000Z,53.30
2018-11-27T11:26:59.194Z,54.97
2018-11-27T11:30:04.182Z,55.50
2018-11-27T11:33:09.890Z,62.77
2018-11-27T11:39:28.338Z,57.43
2018-11-27T11:42:33.320Z,65.70
2018-11-27T11:45:38.189Z,59.83
2018-11-27T11:48:49.090Z,59.63
2018-11-27T11:51:48.874Z,61.73
2018-11-27T11:54:53.731Z,64.40
2018-11-27T11:57:58.584Z,60.87
2018-11-27T12:01:03.461Z,66.77
2018-11-27T12:04:08.754Z,61.98
2018-11-27T12:07:14.070Z,69.47
2018-11-27T12:10:18.879Z,65.47
2018-11-27T12:13:23.751Z,64.93
2018-11-27T12:16:28.740Z,65.30
2018-11-27T12:19:33.746Z,66.92
2018-11-27T12:22:39.715Z,73.13
2018-11-27T12:25:44.616Z,63.10
2018-11-27T12:28:49.487Z,59.67
2018-11-27T12:31:54.335Z,63.60
2018-11-27T12:34:59.202Z,64.10
2018-11-27T12:38:04.273Z,71.17
2018-11-27T12:41:10.332Z,61.60
2018-11-27T12:44:14.954Z,61.63
2018-11-27T12:47:19.811Z,56.63
2018-11-27T12:50:38.698Z,58.95
2018-11-27T12:53:43.747Z,54.50
2018-11-27T12:56:48.690Z,58.30
2018-11-27T12:59:53.530Z,55.58
2018-11-27T13:02:58.494Z,54.57
2018-11-27T13:06:03.795Z,60.03
2018-11-27T13:09:12.394Z,54.00
2018-11-27T13:12:17.341Z,62.35
2018-11-27T13:15:22.808Z,57.60
2018-11-27T13:18:27.787Z,55.80
2018-11-27T13:21:32.613Z,61.80
2018-11-27T13:24:37.521Z,55.17
2018-11-27T13:27:42.510Z,56.80
2018-11-27T13:31:02.148Z,53.95
2018-11-27T13:34:17.159Z,56.17
2018-11-27T13:37:22.050Z,54.30
2018-11-27T13:40:26.971Z,54.03
2018-11-27T13:43:32.034Z,65.97
2018-11-27T13:46:37.020Z,56.85
2018-11-27T13:49:41.876Z,54.38
2018-11-27T13:52:46.831Z,62.33
2018-11-27T13:55:51.673Z,52.93
2018-11-27T13:58:56.662Z,56.23
2018-11-27T14:02:01.650Z,50.23
2018-11-27T14:05:08.432Z,49.67
2018-11-27T14:08:13.789Z,50.43
2018-11-27T14:11:19.190Z,52.93
2018-11-27T14:14:24.224Z,51.33
2018-11-27T14:17:29.154Z,53.83
2018-11-27T14:20:34.233Z,54.98
2018-11-27T14:23:39.929Z,51.60
2018-11-27T14:26:44.894Z,59.47
2018-11-27T14:29:49.810Z,68.77
2018-11-27T14:32:55.145Z,65.75
2018-11-27T14:36:00.055Z,56.17
2018-11-27T14:39:07.349Z,51.98
2018-11-27T14:42:12.235Z,55.30
2018-11-27T14:45:24.198Z,51.40
2018-11-27T14:48:29.135Z,51.77
2018-11-27T14:51:34.022Z,51.23
2018-11-27T14:54:38.959Z,51.63
2018-11-27T14:57:43.820Z,52.47
2018-11-27T15:00:48.650Z,47.40
2018-11-27T15:03:53.524Z,48.00
2018-11-27T15:06:58.434Z,49.47
2018-11-27T15:10:03.300Z,45.80
2018-11-27T15:13:08.900Z,51.00
2018-11-27T15:16:13.764Z,48.40
2018-11-27T15:19:18.618Z,58.77
2018-11-27T15:22:23.518Z,49.13
2018-11-27T15:25:28.434Z,53.03
2018-11-27T15:28:33.336Z,48.70
2018-11-27T15:31:38.139Z,50.60
2018-11-27T15:34:42.995Z,56.27
2018-11-27T15:37:47.901Z,57.60
2018-11-27T15:40:52.772Z,58.60
2018-11-27T15:43:57.684Z,48.67
2018-11-27T15:47:02.502Z,50.07
2018-11-27T15:50:09.210Z,49.43
2018-11-27T15:53:14.116Z,45.93
2018-11-27T15:56:18.974Z,46.77
2018-11-27T15:59:23.831Z,50.07
2018-11-27T16:02:28.776Z,52.03
2018-11-27T16:05:33.647Z,44.93
2018-11-27T16:08:38.501Z,48.90
2018-11-27T16:11:43.388Z,45.90
2018-11-27T16:14:48.295Z,49.58
2018-11-27T16:17:53.158Z,43.23
2018-11-27T16:20:58.015Z,48.50
2018-11-27T16:24:02.864Z,44.37
2018-11-27T16:27:07.739Z,47.37
2018-11-27T16:30:22.592Z,52.97
2018-11-27T16:33:27.464Z,47.77
2018-11-27T16:36:32.435Z,48.80
2018-11-27T16:39:37.419Z,51.57
2018-11-27T16:42:42.351Z,44.20
2018-11-27T16:45:47.271Z,51.37
2018-11-27T16:48:52.249Z,44.90
2018-11-27T16:51:57.230Z,51.00
2018-11-27T16:55:02.266Z,59.50
2018-11-27T16:58:07.161Z,54.90
2018-11-27T17:01:12.036Z,45.90
2018-11-27T17:04:16.965Z,45.15
2018-11-27T17:07:21.960Z,45.83
2018-11-27T17:10:26.824Z,39.07
2018-11-27T17:13:31.690Z,38.00
2018-11-27T17:16:36.875Z,47.67
2018-11-27T17:19:41.725Z,37.47
2018-11-27T17:22:46.645Z,45.30
2018-11-27T17:25:51.591Z,42.13
2018-11-27T17:28:56.427Z,45.07
2018-11-27T17:32:01.311Z,45.17
2018-11-27T17:35:07.311Z,45.23
2018-11-27T17:38:12.191Z,50.40
2018-11-27T17:41:17.106Z,54.43
2018-11-27T17:44:22.079Z,43.67
2018-11-27T17:47:26.990Z,49.00
2018-11-27T17:50:31.946Z,45.43
2018-11-27T17:53:36.935Z,48.33
2018-11-27T17:56:41.956Z,43.50
2018-11-27T17:59:46.854Z,42.83
2018-11-27T18:02:55.745Z,45.03
2018-11-27T18:06:00.615Z,50.40
2018-11-27T18:09:08.394Z,51.20
2018-11-27T18:12:13.273Z,49.40
2018-11-27T18:15:22.236Z,44.47
2018-11-27T18:18:27.119Z,47.03
2018-11-27T18:21:32.250Z,41.43
2018-11-27T18:24:37.108Z,43.47
2018-11-27T18:27:42.949Z,47.20
2018-11-27T18:30:47.935Z,47.63
2018-11-27T18:33:53.016Z,46.30
2018-11-27T18:36:57.918Z,41.10
2018-11-27T18:40:02.877Z,48.63
2018-11-27T18:43:08.105Z,43.30
2018-11-27T18:46:13.029Z,46.33
2018-11-27T18:49:18.026Z,46.80
2018-11-27T18:52:22.925Z,49.00
2018-11-27T18:55:27.847Z,45.13
2018-11-27T18:58:32.740Z,55.65
2018-11-27T19:01:37.857Z,52.13
2018-11-27T19:04:42.853Z,50.30
2018-11-27T19:07:47.936Z,50.25
2018-11-27T19:10:52.814Z,46.25
2018-11-27T19:13:57.749Z,55.70
2018-11-27T19:17:02.788Z,48.13
2018-11-27T19:20:10.711Z,57.07
2018-11-27T19:23:15.618Z,52.33
2018-11-27T19:26:20.521Z,58.50
2018-11-27T19:29:25.406Z,55.90
2018-11-27T19:32:30.309Z,51.70
2018-11-27T19:35:35.269Z,72.83
2018-11-27T19:38:41.010Z,51.30
2018-11-27T19:41:45.933Z,50.52
2018-11-27T19:44:50.888Z,57.83
2018-11-27T19:47:56.338Z,48.83
2018-11-27T19:51:01.211Z,49.83
2018-11-27T19:54:06.214Z,53.80
2018-11-27T19:57:11.958Z,51.58
2018-11-27T20:00:30.077Z,48.90
2018-11-27T20:03:35.009Z,51.77
2018-11-27T20:06:40.114Z,53.50
2018-11-27T20:09:44.985Z,41.83
2018-11-27T20:12:49.931Z,48.57
2018-11-27T20:15:54.804Z,45.90
2018-11-27T20:18:59.809Z,39.67
2018-11-27T20:22:04.743Z,47.90
2018-11-27T20:25:14.484Z,43.83
2018-11-27T20:28:19.337Z,47.70
2018-11-27T20:31:24.182Z,45.77
2018-11-27T20:34:29.057Z,47.58
2018-11-27T20:37:34.070Z,47.58
2018-11-27T20:40:39.052Z,49.85
2018-11-27T20:43:43.985Z,38.55
2018-11-27T20:46:48.899Z,54.80
2018-11-27T20:49:53.915Z,55.93
2018-11-27T20:52:58.804Z,43.60
2018-11-27T20:56:03.723Z,44.60
2018-11-27T20:59:08.784Z,45.03
2018-11-27T21:02:13.643Z,41.97
2018-11-27T21:05:18.578Z,42.43
2018-11-27T21:08:24.347Z,42.37
2018-11-27T21:11:29.279Z,51.30
2018-11-27T21:14:34.252Z,42.50
2018-11-27T21:17:39.432Z,42.30
2018-11-27T21:20:45.234Z,50.33
2018-11-27T21:23:50.102Z,46.10
2018-11-27T21:26:55.002Z,47.00
2018-11-27T21:29:59.873Z,51.20
2018-11-27T21:33:04.763Z,49.33
2018-11-27T21:36:09.625Z,49.17
2018-11-27T21:39:14.538Z,43.85
2018-11-27T21:42:19.489Z,46.37
2018-11-27T21:45:31.311Z,42.33
2018-11-27T21:48:36.212Z,38.67
2018-11-27T21:51:41.553Z,42.95
2018-11-27T21:54:46.532Z,44.37
2018-11-27T21:57:51.437Z,47.90
2018-11-27T22:00:56.334Z,41.37
2018-11-27T22:04:01.243Z,45.53
2018-11-27T22:07:06.229Z,45.87
2018-11-27T22:10:18.173Z,50.70
2018-11-27T22:13:23.073Z,42.10
2018-11-27T22:16:37.857Z,49.77
2018-11-27T22:19:46.321Z,41.57
2018-11-27T22:23:09.636Z,46.13
2018-11-27T22:26:25.172Z,43.73
2018-11-27T22:29:49.756Z,44.00
2018-11-27T22:33:01.543Z,47.50
2018-11-27T22:36:09.356Z,45.17
2018-11-27T22:39:21.163Z,46.80
2018-11-27T22:42:26.083Z,40.53
2018-11-27T22:45:35.583Z,43.75
2018-11-27T22:48:40.531Z,48.67
2018-11-27T22:51:45.393Z,48.63
2018-11-27T22:54:50.246Z,48.63
2018-11-27T22:57:55.142Z,42.67
2018-11-27T23:00:59.961Z,42.50
2018-11-27T23:04:04.850Z,46.07
2018-11-27T23:07:10.609Z,36.60
2018-11-27T23:10:16.104Z,43.47
2018-11-27T23:13:21.018Z,43.15
2018-11-27T23:16:25.968Z,46.75
2018-11-27T23:19:30.798Z,41.83
2018-11-27T23:22:35.658Z,43.50
2018-11-27T23:25:40.660Z,48.77
2018-11-27T23:28:45.626Z,45.43
2018-11-27T23:31:50.517Z,45.08
2018-11-27T23:34:55.541Z,47.65
2018-11-27T23:38:00.521Z,44.40
2018-11-27T23:41:05.311Z,43.80
2018-11-27T23:44:10.232Z,45.73
2018-11-27T23:47:15.059Z,41.10
2018-11-27T23:50:21.251Z,50.80
2018-11-27T23:53:27.373Z,41.42
2018-11-27T23:56:32.246Z,48.70
2018-11-27T23:59:37.170Z,42.40
